Time;durP1;ratioP1;P1;durP2;ratioP2;P2;SDS_P1;SDS_P2;PMS_P1;PMS_P2;Temp;Humidity;BMP_temperature;BMP_pressure;BME280_temperature;BME280_humidity;BME280_pressure;Samples;Min_cycle;Max_cycle;Signal;HPM_P1;HPM_P2
2022/03/23 00:01:19;;;;;;;43.90;26.30;;;7.20;99.90;;;;;;4961214;28;35030;-77
2022/03/23 00:03:46;;;;;;;42.67;24.40;;;7.20;99.90;;;;;;4978065;28;36064;-77
2022/03/23 00:06:14;;;;;;;42.00;24.70;;;7.20;99.90;;;;;;4980916;28;38355;-77
2022/03/23 00:08:40;;;;;;;50.63;26.13;;;7.10;99.90;;;;;;4963848;28;38694;-77
2022/03/23 00:11:07;;;;;;;40.37;24.80;;;7.10;99.90;;;;;;4969067;28;38187;-77
2022/03/23 00:13:34;;;;;;;44.10;24.73;;;7.10;99.90;;;;;;4983249;28;39999;-77
2022/03/23 00:16:00;;;;;;;39.47;24.17;;;7.00;99.90;;;;;;4982715;28;39437;-77
2022/03/23 00:18:26;;;;;;;41.83;24.33;;;7.00;99.90;;;;;;4979057;28;49006;-77
2022/03/23 00:20:52;;;;;;;44.53;25.20;;;7.00;99.90;;;;;;4980276;28;38527;-77
2022/03/23 00:23:18;;;;;;;39.17;24.97;;;7.00;99.90;;;;;;4978837;28;38348;-76
2022/03/23 00:25:44;;;;;;;41.47;25.53;;;6.90;99.90;;;;;;4979421;28;37917;-77
2022/03/23 00:28:10;;;;;;;42.93;25.20;;;6.90;99.90;;;;;;4976610;28;38306;-76
2022/03/23 00:30:36;;;;;;;39.60;26.40;;;6.80;99.90;;;;;;4969906;28;37730;-77
2022/03/23 00:33:03;;;;;;;42.67;25.70;;;6.90;99.90;;;;;;4963987;28;41228;-76
2022/03/23 00:35:30;;;;;;;41.73;23.80;;;6.90;99.90;;;;;;4980082;28;38880;-77
2022/03/23 00:37:58;;;;;;;45.57;25.97;;;6.90;99.90;;;;;;4988531;28;39141;-77
2022/03/23 00:40:25;;;;;;;44.90;26.77;;;6.90;99.90;;;;;;4986757;28;37981;-77
2022/03/23 00:42:52;;;;;;;45.90;26.97;;;6.90;99.90;;;;;;4979675;28;39014;-77
2022/03/23 00:45:18;;;;;;;46.37;27.20;;;6.90;99.90;;;;;;4982802;28;38157;-77
2022/03/23 00:47:46;;;;;;;43.20;25.40;;;6.80;99.90;;;;;;4970019;28;39300;-77
2022/03/23 00:50:12;;;;;;;44.40;25.33;;;6.70;99.90;;;;;;4979265;28;37356;-77
2022/03/23 00:52:39;;;;;;;42.77;25.90;;;6.60;99.90;;;;;;4989685;28;38926;-77
2022/03/23 00:55:09;;;;;;;42.83;25.43;;;6.60;99.90;;;;;;4978233;28;36630;-77
2022/03/23 00:57:36;;;;;;;47.27;27.77;;;6.50;99.90;;;;;;4987176;28;41304;-77
2022/03/23 01:00:10;;;;;;;43.53;26.73;;;6.50;99.90;;;;;;4981719;28;37277;-76
2022/03/23 01:02:36;;;;;;;43.53;25.80;;;6.40;99.90;;;;;;4981705;28;38752;-77
2022/03/23 01:05:03;;;;;;;43.90;26.80;;;6.40;99.90;;;;;;4962923;28;38381;-76
2022/03/23 01:07:29;;;;;;;41.70;26.13;;;6.30;99.90;;;;;;4984726;28;38529;-77
2022/03/23 01:09:55;;;;;;;47.50;25.80;;;6.30;99.90;;;;;;4979839;28;37465;-76
2022/03/23 01:12:22;;;;;;;41.50;26.63;;;6.20;99.90;;;;;;4984062;28;39190;-76
2022/03/23 01:14:48;;;;;;;47.63;26.57;;;6.20;99.90;;;;;;4985060;28;39349;-77
2022/03/23 01:17:14;;;;;;;49.70;26.77;;;6.10;99.90;;;;;;4981864;28;38342;-76
2022/03/23 01:19:41;;;;;;;45.23;28.33;;;6.10;99.90;;;;;;4976104;28;38399;-76
2022/03/23 01:22:07;;;;;;;47.67;27.43;;;6.10;99.90;;;;;;4965975;28;39000;-76
2022/03/23 01:24:33;;;;;;;50.70;29.90;;;6.10;99.90;;;;;;4981963;28;38352;-76
2022/03/23 01:27:01;;;;;;;50.40;28.33;;;6.10;99.90;;;;;;4975583;28;39189;-76
2022/03/23 01:29:28;;;;;;;49.10;29.13;;;6.10;99.90;;;;;;4981012;28;49077;-76
2022/03/23 01:31:54;;;;;;;49.47;27.57;;;6.10;99.90;;;;;;4983589;28;38961;-76
2022/03/23 01:34:20;;;;;;;46.37;27.30;;;6.10;99.90;;;;;;4983116;28;40258;-76
2022/03/23 01:36:46;;;;;;;49.57;28.10;;;6.10;99.90;;;;;;4963944;28;38637;-76
2022/03/23 01:39:12;;;;;;;50.53;29.83;;;6.00;99.90;;;;;;4985219;28;37411;-76
2022/03/23 01:41:40;;;;;;;45.67;28.60;;;5.90;99.90;;;;;;4970346;28;39107;-76
2022/03/23 01:44:19;;;;;;;42.93;28.47;;;5.80;99.90;;;;;;4975391;28;36914;-76
2022/03/23 01:47:06;;;;;;;49.40;28.80;;;5.80;99.90;;;;;;4981560;28;38747;-77
2022/03/23 01:49:33;;;;;;;49.13;27.87;;;5.90;99.90;;;;;;4978187;28;48529;-76
2022/03/23 01:52:00;;;;;;;49.83;29.50;;;5.90;99.90;;;;;;4980156;28;39629;-76
2022/03/23 01:54:26;;;;;;;48.07;27.80;;;5.80;99.90;;;;;;4980416;28;38590;-76
2022/03/23 01:56:53;;;;;;;52.30;29.77;;;5.70;99.90;;;;;;4981505;28;38717;-76
2022/03/23 01:59:19;;;;;;;51.60;28.10;;;5.70;99.90;;;;;;4980056;28;37765;-76
2022/03/23 02:01:46;;;;;;;50.00;28.27;;;5.70;99.90;;;;;;4982645;28;39636;-76
2022/03/23 02:04:13;;;;;;;54.00;30.50;;;5.70;99.90;;;;;;4982022;28;38445;-76
2022/03/23 02:06:39;;;;;;;46.63;29.10;;;5.70;99.90;;;;;;4983254;28;38752;-76
2022/03/23 02:09:05;;;;;;;53.73;31.17;;;5.70;99.90;;;;;;4978997;28;38359;-76
2022/03/23 02:11:32;;;;;;;54.03;31.60;;;5.70;99.90;;;;;;4973506;28;39350;-76
2022/03/23 02:13:59;;;;;;;56.20;30.23;;;5.60;99.90;;;;;;4979457;28;38596;-77
2022/03/23 02:16:25;;;;;;;52.17;29.70;;;5.60;99.90;;;;;;4985470;28;38316;-76
2022/03/23 02:18:51;;;;;;;54.47;30.70;;;5.50;99.90;;;;;;4979223;28;37558;-77
2022/03/23 02:21:18;;;;;;;50.37;29.80;;;5.50;99.90;;;;;;4978404;28;39295;-76
2022/03/23 02:23:44;;;;;;;52.63;29.77;;;5.50;99.90;;;;;;4963759;28;38691;-76
2022/03/23 02:26:12;;;;;;;49.00;30.43;;;5.40;99.90;;;;;;4982084;28;38819;-76
2022/03/23 02:28:39;;;;;;;57.33;30.83;;;5.40;99.90;;;;;;4980501;28;36387;-76
2022/03/23 02:31:05;;;;;;;52.20;29.10;;;5.40;99.90;;;;;;4979556;28;39858;-76
2022/03/23 02:33:32;;;;;;;52.57;30.97;;;5.40;99.90;;;;;;4967489;28;37994;-76
2022/03/23 02:35:58;;;;;;;55.67;30.63;;;5.40;99.90;;;;;;4966044;28;39351;-76
2022/03/23 02:38:24;;;;;;;55.83;32.30;;;5.30;99.90;;;;;;4979367;28;37782;-76
2022/03/23 02:40:50;;;;;;;55.10;32.07;;;5.30;99.90;;;;;;4984618;28;38917;-76
2022/03/23 02:43:16;;;;;;;51.83;29.93;;;5.30;99.90;;;;;;4979600;28;39109;-76
2022/03/23 02:45:42;;;;;;;55.33;32.10;;;5.30;99.90;;;;;;4971446;28;39506;-76
2022/03/23 02:48:09;;;;;;;59.17;33.40;;;5.40;99.90;;;;;;4964244;28;38182;-76
2022/03/23 02:50:35;;;;;;;53.23;31.07;;;5.40;99.90;;;;;;4981655;28;38421;-76
2022/03/23 03:01:52;;;;;;;56.20;30.80;;;5.30;99.90;;;;;;4980712;28;49107;-76
2022/03/23 03:04:20;;;;;;;54.73;28.63;;;5.30;99.90;;;;;;4977497;28;40226;-76
2022/03/23 03:06:46;;;;;;;54.73;31.00;;;5.20;99.90;;;;;;4980473;28;38008;-77
2022/03/23 03:09:14;;;;;;;56.57;30.60;;;5.20;99.90;;;;;;4978969;28;37982;-76
2022/03/23 03:11:44;;;;;;;53.77;30.50;;;5.10;99.90;;;;;;4984211;28;38714;-76
2022/03/23 03:14:13;;;;;;;53.20;29.83;;;5.20;99.90;;;;;;4970139;28;39385;-76
2022/03/23 03:16:39;;;;;;;57.63;30.10;;;5.20;99.90;;;;;;4981079;28;38056;-76
2022/03/23 03:19:11;;;;;;;55.70;32.40;;;5.20;99.90;;;;;;4981210;28;36968;-76
2022/03/23 03:21:37;;;;;;;52.17;28.15;;;5.20;99.90;;;;;;4980255;28;38717;-76
2022/03/23 03:24:04;;;;;;;57.30;31.53;;;5.10;99.90;;;;;;4983179;28;38227;-76
2022/03/23 03:26:33;;;;;;;53.17;29.50;;;5.10;99.90;;;;;;4982293;28;37882;-76
2022/03/23 03:28:59;;;;;;;51.40;30.60;;;5.00;99.90;;;;;;4982851;28;38172;-76
2022/03/23 03:31:25;;;;;;;57.60;34.13;;;4.90;99.90;;;;;;4981958;28;38703;-76
2022/03/23 03:33:51;;;;;;;54.27;31.33;;;4.90;99.90;;;;;;4980099;28;39738;-76
2022/03/23 03:36:17;;;;;;;53.93;30.07;;;4.90;99.90;;;;;;4983031;28;37116;-76
2022/03/23 03:38:44;;;;;;;55.00;31.90;;;4.90;99.90;;;;;;4967171;28;39006;-76
2022/03/23 03:41:10;;;;;;;58.17;30.90;;;4.80;99.90;;;;;;4978814;28;38810;-76
2022/03/23 03:43:37;;;;;;;56.53;31.23;;;4.80;99.90;;;;;;4971775;28;38107;-75
2022/03/23 03:46:10;;;;;;;55.30;31.53;;;4.80;99.90;;;;;;4966365;28;39480;-76
2022/03/23 03:48:37;;;;;;;55.10;31.10;;;4.70;99.90;;;;;;4979753;28;36821;-76
2022/03/23 03:51:06;;;;;;;57.40;31.13;;;4.70;99.90;;;;;;4975839;28;37789;-76
2022/03/23 03:53:35;;;;;;;48.97;29.87;;;4.70;99.90;;;;;;4977471;28;38325;-76
2022/03/23 03:56:02;;;;;;;52.27;31.00;;;4.60;99.90;;;;;;4967572;28;37421;-76
2022/03/23 03:58:29;;;;;;;58.07;30.30;;;4.60;99.90;;;;;;4979680;28;38283;-78
2022/03/23 04:00:55;;;;;;;57.63;31.27;;;4.60;99.90;;;;;;4966067;28;37816;-76
2022/03/23 04:03:21;;;;;;;51.23;30.97;;;4.60;99.90;;;;;;4979573;28;38191;-76
2022/03/23 04:05:47;;;;;;;57.63;31.70;;;4.50;99.90;;;;;;4965697;28;37110;-77
2022/03/23 04:08:13;;;;;;;57.60;30.97;;;4.50;99.90;;;;;;4977890;28;36706;-76
2022/03/23 04:10:39;;;;;;;55.37;32.73;;;4.50;99.90;;;;;;4977116;28;38173;-76
2022/03/23 04:13:07;;;;;;;56.97;31.37;;;4.40;99.90;;;;;;4976994;28;38604;-77
2022/03/23 04:15:35;;;;;;;63.73;33.90;;;4.50;99.90;;;;;;4978616;28;36082;-76
2022/03/23 04:18:02;;;;;;;54.93;30.53;;;4.50;99.90;;;;;;4977259;28;38337;-76
2022/03/23 04:20:29;;;;;;;51.00;31.37;;;4.50;99.90;;;;;;4963843;28;47193;-77
2022/03/23 04:22:55;;;;;;;54.63;29.17;;;4.50;99.90;;;;;;4979624;28;39182;-76
2022/03/23 04:25:21;;;;;;;59.47;31.60;;;4.40;99.90;;;;;;4979444;28;37387;-76
2022/03/23 04:27:53;;;;;;;59.07;31.40;;;4.40;99.90;;;;;;4981847;28;38443;-76
2022/03/23 04:30:22;;;;;;;56.23;30.80;;;4.30;99.90;;;;;;4981196;28;38710;-76
2022/03/23 04:32:50;;;;;;;59.07;31.47;;;4.30;99.90;;;;;;4982020;28;38524;-76
2022/03/23 04:35:17;;;;;;;52.43;30.73;;;4.20;99.90;;;;;;4979966;28;39124;-76
2022/03/23 04:37:44;;;;;;;55.40;30.37;;;4.10;99.90;;;;;;4967314;28;36441;-76
2022/03/23 04:40:11;;;;;;;56.87;30.97;;;4.10;99.90;;;;;;4982445;28;38503;-76
2022/03/23 04:42:38;;;;;;;52.93;31.63;;;4.00;99.90;;;;;;4952685;28;38319;-76
2022/03/23 04:45:06;;;;;;;56.00;32.00;;;4.00;99.90;;;;;;4975929;28;37975;-76
2022/03/23 04:47:33;;;;;;;59.17;31.83;;;4.10;99.90;;;;;;4983013;28;38371;-76
2022/03/23 04:50:00;;;;;;;50.50;30.00;;;4.10;99.90;;;;;;4982429;28;38462;-76
2022/03/23 04:52:26;;;;;;;57.03;31.33;;;4.10;99.90;;;;;;4982636;28;42541;-76
2022/03/23 04:54:56;;;;;;;60.50;32.60;;;4.10;99.90;;;;;;4982698;28;34883;-76
2022/03/23 04:57:24;;;;;;;54.73;31.30;;;4.10;99.90;;;;;;4984159;28;37319;-75
2022/03/23 04:59:51;;;;;;;52.87;30.47;;;4.10;99.90;;;;;;4979770;28;38330;-76
2022/03/23 05:02:18;;;;;;;59.77;32.37;;;4.10;99.90;;;;;;4982768;28;38092;-76
2022/03/23 05:04:44;;;;;;;58.70;31.93;;;4.10;99.90;;;;;;4983856;28;38380;-76
2022/03/23 05:07:10;;;;;;;59.30;32.17;;;4.10;99.90;;;;;;4959762;28;36422;-76
2022/03/23 05:09:36;;;;;;;61.03;32.27;;;4.10;99.90;;;;;;4977118;28;38081;-76
2022/03/23 05:12:03;;;;;;;58.27;33.33;;;4.00;99.90;;;;;;4981665;28;38662;-76
2022/03/23 05:14:29;;;;;;;61.13;33.07;;;4.00;99.90;;;;;;4962581;28;38211;-76
2022/03/23 05:16:55;;;;;;;54.57;32.00;;;4.00;99.90;;;;;;4964324;28;36918;-76
2022/03/23 05:19:21;;;;;;;60.30;31.63;;;4.00;99.90;;;;;;4985101;28;39102;-76
2022/03/23 05:21:47;;;;;;;52.40;32.23;;;3.90;99.90;;;;;;4984143;28;39308;-76
2022/03/23 05:24:13;;;;;;;58.57;32.90;;;3.80;99.90;;;;;;4970321;28;36982;-76
2022/03/23 05:26:39;;;;;;;61.10;33.13;;;3.80;99.90;;;;;;4972355;28;36203;-77
2022/03/23 05:29:05;;;;;;;59.93;32.33;;;3.90;99.90;;;;;;4982325;28;37524;-76
2022/03/23 05:31:31;;;;;;;60.63;33.37;;;4.20;99.90;;;;;;4968072;28;38151;-75
2022/03/23 05:33:58;;;;;;;70.47;36.57;;;4.40;99.90;;;;;;4986800;28;38340;-76
2022/03/23 05:36:24;;;;;;;64.40;33.63;;;4.30;99.90;;;;;;4970491;28;36422;-76
2022/03/23 05:38:50;;;;;;;55.93;31.77;;;4.30;99.90;;;;;;4984350;28;38798;-76
2022/03/23 05:41:18;;;;;;;57.37;31.97;;;4.20;99.90;;;;;;4985953;28;38351;-76
2022/03/23 05:43:44;;;;;;;61.07;32.33;;;4.20;99.90;;;;;;4982516;28;38154;-76
2022/03/23 05:46:10;;;;;;;60.67;33.17;;;4.10;99.90;;;;;;4965708;28;37735;-76
2022/03/23 05:48:36;;;;;;;64.00;34.73;;;4.10;99.90;;;;;;4984314;28;38855;-76
2022/03/23 05:51:03;;;;;;;58.40;33.10;;;4.00;99.90;;;;;;4977383;28;38031;-75
2022/03/23 05:53:29;;;;;;;58.77;32.53;;;3.90;99.90;;;;;;4981941;28;39260;-76
2022/03/23 05:55:55;;;;;;;58.83;34.30;;;3.90;99.90;;;;;;4972622;28;37603;-76
2022/03/23 05:58:22;;;;;;;63.30;35.57;;;3.90;99.90;;;;;;4962919;28;39625;-76
2022/03/23 06:00:49;;;;;;;63.53;35.60;;;4.00;99.90;;;;;;4978182;28;39956;-76
2022/03/23 06:03:15;;;;;;;65.57;35.17;;;3.90;99.90;;;;;;4960367;28;39417;-76
2022/03/23 06:05:41;;;;;;;59.23;34.50;;;3.90;99.90;;;;;;4959691;28;36589;-77
2022/03/23 06:08:08;;;;;;;64.00;35.23;;;3.90;99.90;;;;;;4974856;28;39092;-76
2022/03/23 06:10:34;;;;;;;62.77;34.37;;;3.90;99.90;;;;;;4980266;28;40221;-76
2022/03/23 06:13:00;;;;;;;57.70;35.20;;;4.00;99.90;;;;;;4966210;28;38089;-75
2022/03/23 06:15:26;;;;;;;59.47;33.87;;;3.90;99.90;;;;;;4975659;28;38543;-77
2022/03/23 06:17:53;;;;;;;60.63;34.50;;;3.90;99.90;;;;;;4963634;28;38993;-77
2022/03/23 06:20:19;;;;;;;60.60;34.30;;;4.00;99.90;;;;;;4968248;28;38319;-76
2022/03/23 06:22:45;;;;;;;58.03;32.27;;;4.00;99.90;;;;;;4969757;28;39320;-77
2022/03/23 06:25:12;;;;;;;65.57;33.53;;;4.00;99.90;;;;;;4968373;28;38558;-76
2022/03/23 06:27:38;;;;;;;64.90;34.57;;;4.00;99.90;;;;;;4966361;28;38372;-76
2022/03/23 06:30:06;;;;;;;61.50;33.90;;;4.00;99.90;;;;;;4979641;28;38278;-77
2022/03/23 06:32:33;;;;;;;60.50;34.60;;;4.00;99.90;;;;;;4961499;28;40400;-77
2022/03/23 06:35:00;;;;;;;61.77;33.70;;;4.00;99.90;;;;;;4968491;28;37695;-78
2022/03/23 06:37:27;;;;;;;64.70;35.57;;;4.10;99.90;;;;;;4963326;28;40607;-78
2022/03/23 06:39:53;;;;;;;63.83;36.27;;;4.10;99.90;;;;;;4959659;28;39068;-78
2022/03/23 06:42:20;;;;;;;64.07;34.73;;;4.20;99.90;;;;;;4962687;28;38333;-78
2022/03/23 06:44:46;;;;;;;64.30;34.70;;;4.20;99.90;;;;;;4964091;28;37640;-77
2022/03/23 06:47:12;;;;;;;64.77;35.90;;;4.30;99.90;;;;;;4966581;28;40927;-78
2022/03/23 06:49:39;;;;;;;65.90;36.20;;;4.30;99.90;;;;;;4969572;28;38612;-78
2022/03/23 06:52:05;;;;;;;61.97;35.30;;;4.40;99.90;;;;;;4962157;28;38098;-78
2022/03/23 06:54:31;;;;;;;64.27;34.97;;;4.50;99.90;;;;;;4958719;28;36781;-78
2022/03/23 06:56:57;;;;;;;60.67;34.30;;;4.60;99.90;;;;;;4973920;28;38830;-78
2022/03/23 06:59:25;;;;;;;59.97;35.07;;;4.60;99.90;;;;;;4965797;28;39297;-78
2022/03/23 07:01:51;;;;;;;68.87;36.70;;;4.70;99.90;;;;;;4982680;28;39159;-78
2022/03/23 07:04:17;;;;;;;71.83;39.17;;;4.80;99.90;;;;;;4986875;28;38393;-78
2022/03/23 07:06:43;;;;;;;67.37;36.43;;;5.00;99.90;;;;;;4965255;28;39460;-77
2022/03/23 07:11:54;;;;;;;59.97;35.37;;;5.30;99.90;;;;;;4988046;28;37723;-78
2022/03/23 07:14:20;;;;;;;63.40;35.13;;;5.40;99.90;;;;;;4982171;28;37305;-78
2022/03/23 07:16:46;;;;;;;59.13;36.07;;;5.60;99.90;;;;;;4984042;28;39495;-78
2022/03/23 07:19:13;;;;;;;63.83;38.03;;;5.80;99.90;;;;;;4982808;28;38833;-78
2022/03/23 07:21:39;;;;;;;60.10;37.07;;;6.20;99.90;;;;;;4983119;28;38542;-78
2022/03/23 07:24:05;;;;;;;54.17;32.03;;;6.60;99.90;;;;;;4981540;28;38448;-78
2022/03/23 07:26:32;;;;;;;66.90;34.10;;;6.90;99.90;;;;;;4967690;28;38416;-78
2022/03/23 07:28:58;;;;;;;58.23;32.93;;;7.20;99.90;;;;;;4964943;28;38981;-78
2022/03/23 07:31:24;;;;;;;53.47;31.33;;;7.40;99.90;;;;;;4969337;28;39383;-78
2022/03/23 07:33:50;;;;;;;56.07;32.07;;;7.80;99.90;;;;;;4963020;28;39113;-78
2022/03/23 07:36:16;;;;;;;47.53;29.67;;;8.10;99.90;;;;;;4966874;28;38531;-78
2022/03/23 07:38:43;;;;;;;53.87;30.30;;;8.30;99.90;;;;;;4979209;28;39138;-78
2022/03/23 07:41:09;;;;;;;53.10;30.93;;;8.50;99.90;;;;;;4983181;28;38499;-77
2022/03/23 07:43:35;;;;;;;54.40;30.83;;;8.50;99.90;;;;;;4979344;28;36444;-78
2022/03/23 07:46:01;;;;;;;49.43;29.07;;;8.60;99.90;;;;;;4962703;28;40024;-78
2022/03/23 07:48:27;;;;;;;48.63;28.37;;;8.50;99.90;;;;;;4982790;28;38609;-78
2022/03/23 07:50:53;;;;;;;49.77;27.87;;;8.90;99.90;;;;;;4962226;28;36967;-78
2022/03/23 07:53:19;;;;;;;48.97;28.70;;;9.10;99.90;;;;;;4981926;28;37244;-75
2022/03/23 07:55:45;;;;;;;44.37;26.73;;;9.20;99.90;;;;;;4980854;28;38751;-76
2022/03/23 07:58:12;;;;;;;46.00;27.23;;;9.20;99.90;;;;;;4974227;28;38689;-75
2022/03/23 08:00:38;;;;;;;44.17;26.50;;;9.30;99.90;;;;;;4982975;28;38855;-75
2022/03/23 08:03:05;;;;;;;46.90;28.13;;;9.30;99.90;;;;;;4979642;28;38775;-76
2022/03/23 08:05:32;;;;;;;52.77;26.93;;;9.40;99.90;;;;;;4984460;28;38912;-75
2022/03/23 08:07:59;;;;;;;46.87;27.00;;;9.50;99.90;;;;;;4984409;28;39152;-75
2022/03/23 08:10:25;;;;;;;44.30;24.57;;;9.70;99.90;;;;;;4982669;28;38660;-76
2022/03/23 08:12:51;;;;;;;50.33;25.83;;;9.90;99.90;;;;;;4984049;28;38357;-75
2022/03/23 08:15:17;;;;;;;42.43;25.70;;;10.10;99.90;;;;;;4984830;28;38739;-76
2022/03/23 08:17:43;;;;;;;46.30;26.50;;;10.20;99.90;;;;;;4966243;28;38303;-76
2022/03/23 08:23:06;;;;;;;42.07;25.37;;;10.30;99.90;;;;;;4979081;28;37912;-76
2022/03/23 08:25:33;;;;;;;41.25;26.42;;;10.40;99.90;;;;;;4979967;28;48224;-76
2022/03/23 08:28:00;;;;;;;43.20;26.20;;;10.40;99.90;;;;;;4979058;28;38379;-76
2022/03/23 08:30:27;;;;;;;44.23;27.13;;;10.40;99.90;;;;;;4980875;28;47502;-77
2022/03/23 08:32:53;;;;;;;42.65;26.02;;;10.40;99.90;;;;;;4979025;28;38867;-76
2022/03/23 08:35:20;;;;;;;47.17;25.45;;;10.50;99.90;;;;;;4981112;28;39325;-75
2022/03/23 08:37:46;;;;;;;46.22;25.65;;;10.60;99.90;;;;;;4980985;28;38229;-78
2022/03/23 08:40:12;;;;;;;38.75;25.08;;;10.80;99.90;;;;;;4965469;28;38057;-78
2022/03/23 08:42:38;;;;;;;42.42;26.20;;;11.00;99.90;;;;;;4983043;28;37253;-78
2022/03/23 08:45:06;;;;;;;41.35;23.98;;;11.20;99.90;;;;;;4972620;28;39282;-78
2022/03/23 08:47:32;;;;;;;38.70;25.27;;;11.30;99.90;;;;;;4976851;28;38963;-78
2022/03/23 08:49:58;;;;;;;41.97;25.88;;;11.40;99.90;;;;;;4985472;28;38739;-78
2022/03/23 08:52:25;;;;;;;49.08;28.02;;;11.50;99.90;;;;;;4983565;28;37670;-77
2022/03/23 08:54:52;;;;;;;46.15;25.38;;;11.70;99.90;;;;;;4985268;28;39681;-77
2022/03/23 08:57:18;;;;;;;110.60;31.20;;;11.80;99.90;;;;;;4986326;28;38746;-78
2022/03/23 08:59:44;;;;;;;66.72;26.30;;;11.80;99.90;;;;;;4977602;28;39110;-78
2022/03/23 09:02:10;;;;;;;49.58;26.58;;;11.90;99.90;;;;;;4988174;28;38227;-78
2022/03/23 09:04:36;;;;;;;48.92;26.83;;;12.10;99.90;;;;;;4966704;28;40044;-79
2022/03/23 09:07:02;;;;;;;50.65;25.75;;;12.20;99.90;;;;;;4974885;28;40897;-78
2022/03/23 09:09:28;;;;;;;46.67;26.38;;;12.40;99.90;;;;;;4978328;28;39417;-78
2022/03/23 09:11:54;;;;;;;43.15;25.50;;;12.40;99.90;;;;;;4967186;28;38729;-78
2022/03/23 09:14:22;;;;;;;41.10;25.50;;;12.50;99.90;;;;;;4982629;28;40303;-78
2022/03/23 09:16:48;;;;;;;45.30;26.98;;;12.70;99.90;;;;;;4986907;28;38551;-78
2022/03/23 09:19:19;;;;;;;49.45;25.85;;;12.80;99.90;;;;;;4979991;28;38738;-79
2022/03/23 09:21:47;;;;;;;42.20;25.80;;;13.00;99.90;;;;;;4988581;28;34529;-79
2022/03/23 09:24:13;;;;;;;44.05;24.55;;;13.10;99.90;;;;;;4967656;28;39584;-79
2022/03/23 09:26:40;;;;;;;43.47;26.05;;;13.30;99.90;;;;;;4981485;28;36781;-79
2022/03/23 09:29:07;;;;;;;39.33;24.95;;;13.40;99.90;;;;;;4983985;28;38154;-79
2022/03/23 09:31:34;;;;;;;40.65;25.15;;;13.50;99.90;;;;;;4973051;28;38401;-79
2022/03/23 09:34:02;;;;;;;38.47;25.02;;;13.60;99.90;;;;;;4983120;28;39872;-78
2022/03/23 09:39:14;;;;;;;39.33;25.08;;;13.80;99.90;;;;;;4981531;28;38705;-79
2022/03/23 09:41:41;;;;;;;36.03;25.10;;;14.00;99.90;;;;;;4973076;28;38405;-78
2022/03/23 09:44:08;;;;;;;36.58;23.75;;;14.10;99.90;;;;;;4983187;28;38843;-78
2022/03/23 09:46:34;;;;;;;37.97;24.60;;;14.20;99.90;;;;;;4960239;28;39252;-78
2022/03/23 09:49:01;;;;;;;42.25;26.08;;;14.30;99.90;;;;;;4961155;28;40860;-79
2022/03/23 09:51:31;;;;;;;39.38;25.85;;;14.50;99.90;;;;;;4966734;28;46726;-78
2022/03/23 09:53:59;;;;;;;39.67;25.70;;;14.60;99.90;;;;;;4968787;28;40641;-79
2022/03/23 09:56:25;;;;;;;41.40;25.63;;;14.80;99.90;;;;;;4984519;28;38264;-78
2022/03/23 09:58:51;;;;;;;38.50;24.58;;;14.90;99.90;;;;;;4984540;28;38234;-79
2022/03/23 10:01:30;;;;;;;39.33;24.63;;;15.00;99.90;;;;;;4963943;28;38105;-78
2022/03/23 10:04:06;;;;;;;42.53;26.27;;;15.20;99.90;;;;;;4967835;28;39655;-78
2022/03/23 10:06:47;;;;;;;36.58;25.33;;;15.30;99.90;;;;;;4983706;28;48775;-79
2022/03/23 10:09:16;;;;;;;40.28;24.55;;;15.50;99.90;;;;;;4979993;28;38311;-76
2022/03/23 10:11:42;;;;;;;38.75;24.77;;;15.70;99.90;;;;;;4975260;28;37014;-77
2022/03/23 10:14:36;;;;;;;34.25;23.30;;;15.80;99.90;;;;;;4967955;28;40022;-76
2022/03/23 10:17:26;;;;;;;37.08;22.65;;;16.00;99.90;;;;;;4978731;28;38345;-77
2022/03/23 10:19:53;;;;;;;32.70;21.48;;;16.20;99.90;;;;;;4978520;28;39136;-76
2022/03/23 10:22:19;;;;;;;32.60;23.20;;;16.30;99.90;;;;;;4962518;28;38111;-76
2022/03/23 10:24:45;;;;;;;38.38;25.67;;;16.60;99.90;;;;;;4984475;28;38845;-76
2022/03/23 10:27:17;;;;;;;32.63;23.95;;;16.70;99.90;;;;;;4985806;28;38381;-76
2022/03/23 10:29:48;;;;;;;33.80;23.88;;;16.90;99.90;;;;;;4983242;28;38105;-76
2022/03/23 10:32:15;;;;;;;33.05;22.83;;;16.90;99.90;;;;;;4982928;28;37351;-76
2022/03/23 10:34:41;;;;;;;39.17;25.02;;;17.00;99.90;;;;;;4983684;28;40174;-77
2022/03/23 10:37:08;;;;;;;34.15;23.75;;;17.10;99.90;;;;;;4985104;28;38417;-76
2022/03/23 10:39:34;;;;;;;32.88;25.08;;;17.20;99.90;;;;;;4981282;28;40267;-76
2022/03/23 10:42:15;;;;;;;35.53;24.77;;;17.30;99.90;;;;;;4981922;28;37735;-77
2022/03/23 10:44:41;;;;;;;38.05;24.90;;;17.50;99.90;;;;;;4964499;28;48747;-76
2022/03/23 10:47:24;;;;;;;36.25;25.42;;;17.40;99.90;;;;;;4982867;28;38548;-78
2022/03/23 10:49:50;;;;;;;;;;;17.70;99.90;;;;;;4982978;28;38797;-76
2022/03/23 10:52:18;;;;;;;36.40;26.08;;;17.60;99.90;;;;;;4981769;28;38032;-77
2022/03/23 10:55:04;;;;;;;34.03;24.58;;;17.20;99.90;;;;;;4968676;28;38871;-76
2022/03/23 10:57:55;;;;;;;35.47;24.83;;;17.20;99.90;;;;;;4978990;28;47073;-76
2022/03/23 11:00:35;;;;;;;40.03;26.10;;;17.30;99.90;;;;;;4959085;28;37787;-78
2022/03/23 11:03:04;;;;;;;33.05;24.25;;;17.70;99.90;;;;;;4978447;28;38484;-76
2022/03/23 11:05:45;;;;;;;34.20;25.63;;;17.80;99.90;;;;;;4979584;28;40867;-77
2022/03/23 11:08:29;;;;;;;43.03;27.95;;;17.60;99.90;;;;;;4961580;28;38711;-76
2022/03/23 11:16:35;;;;;;;40.40;27.15;;;18.00;99.60;;;;;;4964420;28;49118;-77
2022/03/23 11:19:10;;;;;;;37.45;27.55;;;18.10;99.90;;;;;;4964842;28;38219;-77
2022/03/23 11:22:05;;;;;;;36.47;27.02;;;18.40;99.90;;;;;;4962719;28;46893;-77
2022/03/23 11:24:36;;;;;;;38.97;25.92;;;18.20;98.20;;;;;;4959433;28;48306;-77
2022/03/23 11:27:06;;;;;;;42.53;27.77;;;18.20;97.80;;;;;;4962859;28;38854;-76
2022/03/23 11:29:33;;;;;;;36.80;25.55;;;18.10;97.20;;;;;;4976376;28;38981;-78
2022/03/23 11:32:04;;;;;;;33.47;26.25;;;18.20;96.50;;;;;;4963549;28;38187;-77
2022/03/23 11:34:34;;;;;;;38.13;24.88;;;17.80;96.70;;;;;;4962126;28;49069;-77
2022/03/23 11:37:01;;;;;;;31.15;23.73;;;18.00;98.10;;;;;;4961386;28;38777;-77
2022/03/23 11:39:29;;;;;;;31.17;23.63;;;18.60;99.70;;;;;;4959534;28;48239;-77
2022/03/23 11:41:55;;;;;;;32.28;24.08;;;18.90;94.20;;;;;;4960713;28;38856;-77
2022/03/23 11:44:22;;;;;;;32.17;23.05;;;18.50;94.70;;;;;;4972006;28;38032;-77
2022/03/23 11:46:50;;;;;;;32.95;23.90;;;18.20;93.80;;;;;;4962890;28;38702;-77
2022/03/23 11:49:54;;;;;;;33.67;24.17;;;18.50;94.50;;;;;;4961783;28;38576;-76
2022/03/23 11:52:45;;;;;;;37.22;24.35;;;18.80;94.10;;;;;;4956441;28;38523;-77
2022/03/23 11:55:38;;;;;;;34.28;24.15;;;18.90;93.30;;;;;;4971049;28;38586;-77
2022/03/23 11:58:18;;;;;;;35.92;25.52;;;18.60;93.20;;;;;;4983076;28;38830;-77
2022/03/23 12:01:02;;;;;;;31.23;23.58;;;18.50;93.60;;;;;;4962091;28;39394;-77
2022/03/23 12:03:41;;;;;;;34.25;24.65;;;18.70;92.50;;;;;;4972506;28;48989;-77
2022/03/23 12:06:12;;;;;;;34.03;24.05;;;19.00;93.30;;;;;;4970485;28;37285;-77
2022/03/23 12:08:48;;;;;;;37.08;25.92;;;19.50;93.40;;;;;;4983121;28;38526;-78
2022/03/23 12:11:33;;;;;;;35.80;25.08;;;19.50;92.30;;;;;;4983017;28;38290;-78
2022/03/23 12:14:02;;;;;;;34.97;24.45;;;19.40;92.60;;;;;;4983920;28;38504;-78
2022/03/23 12:16:46;;;;;;;33.72;25.42;;;19.10;91.20;;;;;;4983797;28;48655;-77
2022/03/23 12:19:26;;;;;;;31.65;23.88;;;19.00;91.60;;;;;;4982201;28;39858;-77
2022/03/23 12:21:55;;;;;;;33.00;23.27;;;18.90;92.20;;;;;;4982225;28;38555;-77
2022/03/23 12:24:54;;;;;;;36.17;24.80;;;19.40;93.20;;;;;;4969644;28;36904;-78
2022/03/23 12:27:40;;;;;;;36.25;24.25;;;19.00;91.20;;;;;;4980011;28;38018;-78
2022/03/23 12:30:15;;;;;;;34.45;25.40;;;19.20;91.30;;;;;;4967908;28;40431;-78
2022/03/23 12:32:42;;;;;;;34.38;26.45;;;19.60;91.80;;;;;;4989195;28;38520;-78
2022/03/23 12:35:08;;;;;;;35.50;26.38;;;19.50;90.70;;;;;;4985402;28;38788;-78
2022/03/23 12:37:40;;;;;;;35.78;25.48;;;19.40;90.20;;;;;;4986805;28;37205;-77
2022/03/23 12:40:12;;;;;;;36.22;26.45;;;19.50;91.10;;;;;;4985070;28;37712;-78
2022/03/23 12:42:46;;;;;;;36.58;24.60;;;19.30;91.50;;;;;;4985933;28;38679;-78
2022/03/23 12:45:31;;;;;;;34.30;26.70;;;19.70;92.40;;;;;;4980056;28;39282;-79
2022/03/23 12:48:07;;;;;;;40.28;26.80;;;19.80;91.00;;;;;;4986031;28;38291;-79
2022/03/23 12:59:16;;;;;;;36.65;26.70;;;19.90;91.40;;;;;;4985825;28;20055;-79
2022/03/23 13:01:43;;;;;;;37.03;25.88;;;20.10;90.00;;;;;;4984964;28;39848;-79
2022/03/23 13:04:44;;;;;;;35.60;25.58;;;19.70;90.00;;;;;;4968795;28;38502;-79
2022/03/23 13:07:35;;;;;;;34.13;26.33;;;20.20;88.90;;;;;;4985257;28;37898;-77
2022/03/23 13:10:08;;;;;;;36.75;27.83;;;20.10;88.30;;;;;;4968769;28;37956;-80
2022/03/23 13:12:35;;;;;;;38.08;27.63;;;19.70;87.50;;;;;;4978096;28;47230;-79